Time;durP1;ratioP1;P1;durP2;ratioP2;P2;SDS_P1;SDS_P2;PMS_P1;PMS_P2;Temp;Humidity;BMP_temperature;BMP_pressure;BME280_temperature;BME280_humidity;BME280_pressure;Samples;Min_cycle;Max_cycle;Signal;HPM_P1;HPM_P2
2023/06/02 00:02:13;;;;;;;9.45;2.85;;;;;;;12.77;72.75;102068.81;5032783;28;20049;-62
2023/06/02 00:04:41;;;;;;;10.80;3.30;;;;;;;12.75;72.78;102057.28;5027308;28;20049;-64
2023/06/02 00:07:09;;;;;;;10.38;2.88;;;;;;;12.79;72.50;102061.19;5021639;28;20091;-61
2023/06/02 00:09:40;;;;;;;8.75;2.83;;;;;;;12.93;72.25;102055.31;5040482;28;20072;-63
2023/06/02 00:12:10;;;;;;;11.10;3.08;;;;;;;12.90;71.81;102055.84;5048790;28;20065;-64
2023/06/02 00:14:40;;;;;;;9.85;3.20;;;;;;;12.81;71.60;102055.44;5067139;28;20132;-62
2023/06/02 00:17:10;;;;;;;10.90;2.80;;;;;;;12.75;71.87;102056.47;5050217;28;20046;-62
2023/06/02 00:19:42;;;;;;;12.32;3.38;;;;;;;12.65;72.34;102059.88;5012857;28;20063;-62
2023/06/02 00:22:13;;;;;;;9.93;3.45;;;;;;;12.48;71.47;102059.06;5046839;28;20084;-62
2023/06/02 00:24:41;;;;;;;12.15;2.83;;;;;;;12.41;72.65;102052.94;5046057;28;20054;-65
2023/06/02 00:27:10;;;;;;;12.10;3.03;;;;;;;12.49;71.25;102052.53;5056455;28;20430;-63
2023/06/02 00:29:38;;;;;;;12.43;3.40;;;;;;;12.51;71.40;102064.03;5037198;28;20101;-61
2023/06/02 00:32:07;;;;;;;10.55;2.95;;;;;;;12.39;71.93;102052.34;5036978;28;20049;-61
2023/06/02 00:34:35;;;;;;;15.02;3.30;;;;;;;12.40;71.01;102052.13;5022873;28;20042;-62
2023/06/02 00:37:03;;;;;;;10.07;3.28;;;;;;;12.50;71.88;102056.91;5016159;28;20092;-60
2023/06/02 00:39:31;;;;;;;12.18;3.33;;;;;;;12.47;70.30;102046.47;5031392;28;20104;-64
2023/06/02 00:41:59;;;;;;;13.07;4.05;;;;;;;12.50;70.82;102046.78;5033482;28;20046;-62
2023/06/02 00:44:26;;;;;;;10.20;3.20;;;;;;;12.38;70.53;102042.50;5019007;28;20053;-63
2023/06/02 00:46:55;;;;;;;11.02;3.88;;;;;;;12.39;71.44;102044.16;5035012;28;20418;-64
2023/06/02 00:49:23;;;;;;;14.23;3.92;;;;;;;12.47;71.12;102044.56;5034386;28;20041;-61
2023/06/02 00:51:52;;;;;;;11.35;3.47;;;;;;;12.45;70.46;102048.63;5035363;28;20045;-61
2023/06/02 00:54:20;;;;;;;10.63;3.03;;;;;;;12.39;70.76;102045.00;5034443;28;20177;-61
2023/06/02 00:56:48;;;;;;;11.30;3.88;;;;;;;12.42;71.30;102049.97;5051734;28;20401;-62
2023/06/02 00:59:15;;;;;;;11.10;3.90;;;;;;;12.47;70.35;102047.31;5036128;28;20437;-62
2023/06/02 01:01:45;;;;;;;11.98;3.60;;;;;;;12.35;70.53;102049.31;5036523;28;20056;-62
2023/06/02 01:04:13;;;;;;;11.82;3.63;;;;;;;12.29;70.81;102045.69;5036563;28;20046;-62
2023/06/02 01:06:41;;;;;;;11.32;3.72;;;;;;;12.37;71.84;102044.41;5032378;28;20045;-63
2023/06/02 01:09:13;;;;;;;13.05;4.00;;;;;;;12.40;70.88;102052.13;5001126;28;20045;-62
2023/06/02 01:11:41;;;;;;;11.48;3.58;;;;;;;12.48;70.86;102048.13;4999162;28;20148;-61
2023/06/02 01:14:10;;;;;;;13.43;3.65;;;;;;;12.56;70.37;102044.97;5016157;28;20046;-62
2023/06/02 01:16:38;;;;;;;12.13;3.55;;;;;;;12.62;70.36;102043.97;5035752;28;20083;-62
2023/06/02 01:19:07;;;;;;;11.88;3.30;;;;;;;12.59;70.63;102047.19;5001830;28;20045;-62
2023/06/02 01:21:38;;;;;;;12.35;3.42;;;;;;;12.56;70.61;102039.50;5034732;28;20064;-61
2023/06/02 01:24:06;;;;;;;10.90;3.50;;;;;;;12.57;71.33;102046.63;5018565;28;20051;-62
2023/06/02 01:26:36;;;;;;;12.38;3.40;;;;;;;12.62;71.09;102046.69;5018723;28;20053;-63
2023/06/02 01:29:04;;;;;;;12.40;3.95;;;;;;;12.69;70.78;102041.88;5024850;28;20077;-62
2023/06/02 01:31:46;;;;;;;11.15;3.45;;;;;;;12.76;70.62;102042.50;5034525;28;20045;-62
2023/06/02 01:34:37;;;;;;;12.23;3.50;;;;;;;12.74;70.54;102041.94;5018325;28;20052;-61
2023/06/02 01:37:05;;;;;;;12.68;3.65;;;;;;;12.79;70.38;102038.44;5035599;28;20049;-62
2023/06/02 01:39:34;;;;;;;12.38;3.83;;;;;;;12.67;70.71;102032.25;5033334;28;20520;-62
2023/06/02 01:42:03;;;;;;;11.63;3.53;;;;;;;12.57;70.74;102030.22;5018115;28;20053;-62
2023/06/02 01:44:31;;;;;;;12.27;3.80;;;;;;;12.52;71.38;102027.41;5036011;28;20398;-61
2023/06/02 01:47:03;;;;;;;12.90;3.70;;;;;;;12.51;71.46;102034.78;5034629;28;20400;-63
2023/06/02 01:49:31;;;;;;;13.57;4.13;;;;;;;12.53;71.54;102031.78;5047562;28;20073;-62
2023/06/02 01:51:59;;;;;;;11.32;3.20;;;;;;;12.50;71.74;102029.56;5014040;28;20045;-61
2023/06/02 01:54:27;;;;;;;14.18;3.72;;;;;;;12.55;71.88;102026.91;5052065;28;20482;-60
2023/06/02 01:56:55;;;;;;;13.38;4.25;;;;;;;12.52;72.32;102030.97;5035563;28;20041;-61
2023/06/02 01:59:23;;;;;;;12.52;3.58;;;;;;;12.53;72.53;102034.53;5037371;28;20513;-64
2023/06/02 02:01:50;;;;;;;15.35;3.88;;;;;;;12.63;72.10;102034.69;5051395;28;20049;-62
2023/06/02 02:04:18;;;;;;;11.00;3.47;;;;;;;12.64;71.60;102030.88;5036558;28;20045;-64
2023/06/02 02:06:49;;;;;;;15.45;4.10;;;;;;;12.55;71.92;102035.97;5017611;28;20080;-63
2023/06/02 02:09:17;;;;;;;15.85;4.30;;;;;;;12.55;71.90;102033.22;5030674;28;20041;-63
2023/06/02 02:11:44;;;;;;;11.10;3.75;;;;;;;12.49;72.68;102041.59;5031339;28;20057;-65
2023/06/02 02:14:13;;;;;;;12.32;3.95;;;;;;;12.47;72.61;102036.38;5017395;28;20046;-62
2023/06/02 02:16:44;;;;;;;12.23;3.63;;;;;;;12.47;73.38;102036.38;5020524;28;20045;-61
2023/06/02 02:19:12;;;;;;;12.18;3.15;;;;;;;12.53;72.58;102034.53;5066698;28;20039;-62
2023/06/02 02:21:41;;;;;;;16.23;3.92;;;;;;;12.50;72.35;102037.78;5047782;28;20572;-63
2023/06/02 02:24:09;;;;;;;11.25;3.30;;;;;;;12.53;73.47;102034.53;5037388;28;20096;-62
2023/06/02 02:26:38;;;;;;;14.82;3.58;;;;;;;12.52;72.31;102032.88;5035768;28;20042;-62
2023/06/02 02:29:06;;;;;;;13.38;3.53;;;;;;;12.40;72.79;102040.34;5018485;28;20468;-61
2023/06/02 02:31:34;;;;;;;15.75;4.00;;;;;;;12.36;73.80;102031.81;5015334;28;20046;-61
2023/06/02 02:34:01;;;;;;;12.88;4.05;;;;;;;12.41;73.80;102039.25;5031074;28;20433;-62
2023/06/02 02:36:29;;;;;;;14.32;3.95;;;;;;;12.34;73.33;102034.00;5031288;28;20050;-61
2023/06/02 02:38:58;;;;;;;12.07;3.53;;;;;;;12.24;74.14;102037.41;5022326;28;20064;-63
2023/06/02 02:41:26;;;;;;;13.65;4.50;;;;;;;12.18;74.66;102043.84;5032338;28;20109;-62
2023/06/02 02:43:55;;;;;;;12.35;3.83;;;;;;;12.14;74.79;102048.97;5014067;28;20482;-61
2023/06/02 02:46:23;;;;;;;15.57;4.03;;;;;;;12.13;74.21;102032.84;5000204;28;20481;-62
2023/06/02 02:48:51;;;;;;;11.85;3.65;;;;;;;12.13;75.43;102041.03;5034446;28;20057;-62
2023/06/02 02:51:19;;;;;;;14.48;4.50;;;;;;;12.25;74.48;102041.78;5032838;28;20056;-62
2023/06/02 02:53:46;;;;;;;17.15;4.55;;;;;;;12.30;74.64;102044.59;5032808;28;20453;-64
2023/06/02 02:56:14;;;;;;;14.65;3.95;;;;;;;12.30;73.57;102038.31;5032647;28;20041;-63
2023/06/02 02:58:42;;;;;;;12.18;3.60;;;;;;;12.31;72.63;102040.78;5032883;28;20077;-64
2023/06/02 03:01:15;;;;;;;15.85;4.15;;;;;;;12.20;73.22;102049.91;5018172;28;20076;-61
2023/06/02 03:03:44;;;;;;;11.10;3.22;;;;;;;12.07;72.44;102042.00;4997846;28;20057;-60
2023/06/02 03:06:13;;;;;;;9.85;3.55;;;;;;;12.00;73.26;102042.22;5016229;28;20049;-61
2023/06/02 03:08:41;;;;;;;13.73;3.53;;;;;;;12.03;73.02;102046.34;5018384;28;20056;-61
2023/06/02 03:11:09;;;;;;;17.83;3.80;;;;;;;12.08;72.20;102046.41;5033035;28;20076;-62
2023/06/02 03:13:37;;;;;;;8.25;3.33;;;;;;;11.94;73.01;102048.63;5033050;28;20076;-62
2023/06/02 03:16:05;;;;;;;10.75;3.58;;;;;;;11.96;73.13;102045.69;5016455;28;20041;-61
2023/06/02 03:18:34;;;;;;;11.15;3.42;;;;;;;11.89;73.33;102043.91;5032786;28;20072;-61
2023/06/02 03:21:05;;;;;;;11.68;3.58;;;;;;;11.86;73.14;102049.84;5017187;28;20050;-62
2023/06/02 03:23:33;;;;;;;12.00;3.65;;;;;;;11.85;73.27;102045.44;5013790;28;20049;-61
2023/06/02 03:26:03;;;;;;;15.50;3.13;;;;;;;11.81;73.88;102060.69;5013680;28;20117;-63
2023/06/02 03:28:31;;;;;;;10.63;3.40;;;;;;;11.75;74.02;102061.66;5026683;28;20045;-61
2023/06/02 03:30:59;;;;;;;14.48;4.22;;;;;;;11.82;73.25;102056.88;5029450;28;20138;-62
2023/06/02 03:33:27;;;;;;;13.73;4.13;;;;;;;11.85;74.26;102056.38;5029340;28;20386;-64
2023/06/02 03:35:55;;;;;;;12.68;3.67;;;;;;;11.94;73.72;102060.38;5029010;28;20049;-62
2023/06/02 03:38:23;;;;;;;11.77;3.83;;;;;;;12.00;73.01;102053.13;5026183;28;20080;-63
2023/06/02 03:40:51;;;;;;;11.85;3.55;;;;;;;12.00;73.28;102044.94;5033394;28;20144;-63
2023/06/02 03:43:19;;;;;;;17.75;3.80;;;;;;;12.09;73.07;102053.53;5020966;28;20056;-60
2023/06/02 03:45:47;;;;;;;15.32;3.92;;;;;;;12.04;73.40;102058.91;5053140;28;20054;-66
2023/06/02 03:48:16;;;;;;;16.00;4.28;;;;;;;12.06;73.32;102054.03;5033859;28;20065;-61
2023/06/02 03:50:44;;;;;;;14.55;3.97;;;;;;;11.92;73.05;102057.06;5025944;28;20056;-61
2023/06/02 03:53:12;;;;;;;13.30;3.85;;;;;;;11.81;74.52;102060.69;5035379;28;20092;-62
2023/06/02 03:55:40;;;;;;;11.43;3.55;;;;;;;11.84;74.45;102065.66;5053137;28;20050;-62
2023/06/02 03:58:08;;;;;;;11.73;3.67;;;;;;;11.91;73.76;102066.34;5037513;28;20045;-61
2023/06/02 04:00:35;;;;;;;7.28;3.08;;;;;;;11.83;74.29;102058.50;5034433;28;20041;-64
2023/06/02 04:03:04;;;;;;;10.43;3.70;;;;;;;11.76;73.82;102065.22;5030569;28;20057;-62
2023/06/02 04:05:33;;;;;;;11.43;3.55;;;;;;;11.79;74.20;102054.63;5031118;28;20092;-62
2023/06/02 04:08:02;;;;;;;14.13;3.92;;;;;;;11.84;73.81;102065.66;5015805;28;20500;-62
2023/06/02 04:10:31;;;;;;;8.65;3.25;;;;;;;11.80;72.61;102069.94;5052710;28;20509;-61
2023/06/02 04:13:02;;;;;;;6.88;2.92;;;;;;;11.76;73.13;102074.25;5036716;28;20525;-62
2023/06/02 04:15:31;;;;;;;13.98;3.58;;;;;;;11.65;72.00;102073.22;5018360;28;20069;-63
2023/06/02 04:17:59;;;;;;;10.20;3.15;;;;;;;11.46;73.69;102075.31;5035211;28;20046;-61
2023/06/02 04:20:27;;;;;;;12.23;3.25;;;;;;;11.50;73.78;102071.03;5018139;28;20046;-62
2023/06/02 04:22:55;;;;;;;7.90;3.42;;;;;;;11.61;72.80;102079.41;5032076;28;20060;-62
2023/06/02 04:25:22;;;;;;;8.05;3.10;;;;;;;11.67;73.00;102076.53;5020614;28;20049;-62
2023/06/02 04:27:50;;;;;;;11.88;3.40;;;;;;;11.70;71.67;102080.69;5048575;28;20041;-61
2023/06/02 04:30:18;;;;;;;10.65;3.33;;;;;;;11.69;71.77;102079.84;5036315;28;20097;-61
2023/06/02 04:32:46;;;;;;;12.05;3.30;;;;;;;11.73;70.89;102072.81;5035424;28;20071;-62
2023/06/02 04:35:15;;;;;;;11.98;3.40;;;;;;;11.70;70.94;102075.22;5035374;28;20531;-63
2023/06/02 04:37:44;;;;;;;9.57;3.13;;;;;;;11.68;70.71;102077.34;5036529;28;20046;-62
2023/06/02 04:40:15;;;;;;;12.00;3.40;;;;;;;11.62;71.34;102081.09;5034789;28;20080;-62
2023/06/02 04:42:44;;;;;;;13.18;3.78;;;;;;;11.61;71.81;102072.03;5035767;28;20077;-62
2023/06/02 04:45:12;;;;;;;12.45;3.55;;;;;;;11.62;71.23;102073.72;5043978;28;20046;-63
2023/06/02 04:47:43;;;;;;;12.02;3.00;;;;;;;11.64;71.43;102068.84;5016642;28;20065;-62
2023/06/02 04:50:13;;;;;;;9.52;3.45;;;;;;;11.69;71.28;102065.38;5022734;28;20060;-63
2023/06/02 04:52:44;;;;;;;15.55;3.63;;;;;;;11.72;71.29;102071.16;5009854;28;20387;-64
2023/06/02 04:55:14;;;;;;;15.13;3.45;;;;;;;11.49;72.58;102074.00;4999926;28;20060;-63
2023/06/02 04:57:44;;;;;;;13.13;3.55;;;;;;;11.39;73.21;102082.00;5023157;28;20125;-65
2023/06/02 05:00:14;;;;;;;12.30;3.72;;;;;;;11.31;73.93;102072.28;5023406;28;20133;-63
2023/06/02 05:02:42;;;;;;;15.30;4.07;;;;;;;11.36;73.56;102077.84;5002156;28;20049;-63
2023/06/02 05:05:10;;;;;;;14.20;3.85;;;;;;;11.34;74.29;102085.44;5034664;28;20457;-62
2023/06/02 05:07:41;;;;;;;11.35;3.38;;;;;;;11.24;75.13;102077.06;5032906;28;20060;-61
2023/06/02 05:10:09;;;;;;;11.15;3.53;;;;;;;11.26;75.45;102077.66;5034229;28;20073;-62
2023/06/02 05:12:41;;;;;;;12.68;3.58;;;;;;;11.40;74.88;102076.31;5035649;28;20612;-63
2023/06/02 05:15:10;;;;;;;12.52;3.95;;;;;;;11.55;74.69;102083.13;5034449;28;20123;-62
2023/06/02 05:17:38;;;;;;;11.10;3.63;;;;;;;11.67;73.74;102087.47;5017289;28;20057;-65
2023/06/02 05:20:07;;;;;;;14.73;3.92;;;;;;;11.51;74.12;102089.06;5047471;28;20481;-62
2023/06/02 05:22:35;;;;;;;15.52;3.60;;;;;;;11.48;73.77;102095.00;5057944;28;20069;-63
2023/06/02 05:25:04;;;;;;;17.23;3.72;;;;;;;11.55;74.25;102088.59;5037924;28;20045;-62
2023/06/02 05:27:35;;;;;;;11.32;3.97;;;;;;;11.68;73.36;102093.75;5049030;28;20133;-62
2023/06/02 05:30:03;;;;;;;13.27;3.90;;;;;;;11.80;72.19;102091.78;5035093;28;20049;-62
2023/06/02 05:32:32;;;;;;;15.43;3.60;;;;;;;11.87;72.23;102091.66;5000624;28;20054;-61
2023/06/02 05:35:02;;;;;;;15.60;4.43;;;;;;;11.88;71.04;102098.78;5050751;28;20049;-63
2023/06/02 05:37:30;;;;;;;12.57;3.80;;;;;;;11.82;71.66;102095.09;5043662;28;20052;-63
2023/06/02 05:39:59;;;;;;;14.77;4.00;;;;;;;11.63;71.09;102099.94;5015791;28;20052;-62
2023/06/02 05:42:27;;;;;;;12.65;3.65;;;;;;;11.40;72.87;102091.81;4997964;28;20073;-62
2023/06/02 05:44:55;;;;;;;16.85;4.57;;;;;;;11.43;72.49;102092.19;5007913;28;20049;-62
2023/06/02 05:47:26;;;;;;;16.27;3.88;;;;;;;11.37;73.17;102089.59;5032904;28;20119;-61
2023/06/02 05:49:54;;;;;;;16.23;3.40;;;;;;;11.40;72.96;102092.66;4337317;28;9999960;-63
2023/06/02 05:52:22;;;;;;;14.65;3.53;;;;;;;11.45;73.05;102097.41;5015464;28;20053;-63
2023/06/02 05:54:50;;;;;;;14.38;4.40;;;;;;;11.44;73.26;102093.81;5030201;28;20041;-64
2023/06/02 05:57:19;;;;;;;14.77;4.18;;;;;;;11.33;73.16;102102.91;5014477;28;20057;-63
2023/06/02 05:59:48;;;;;;;12.95;3.75;;;;;;;11.32;72.38;102106.69;5030306;28;20045;-62
2023/06/02 06:02:16;;;;;;;16.98;3.90;;;;;;;11.34;73.04;102096.34;5030626;28;20057;-63
2023/06/02 06:04:44;;;;;;;16.60;3.90;;;;;;;11.42;72.05;102101.41;5012315;28;20064;-63
2023/06/02 06:07:11;;;;;;;11.25;3.25;;;;;;;11.42;72.26;102097.88;5027142;28;20138;-65
2023/06/02 06:09:39;;;;;;;15.07;3.50;;;;;;;11.39;72.29;102087.44;5013141;28;20041;-61
2023/06/02 06:12:08;;;;;;;11.38;3.65;;;;;;;11.40;72.28;102091.81;5028461;28;20053;-63
2023/06/02 06:14:36;;;;;;;10.68;3.20;;;;;;;11.45;72.30;102087.31;5030332;28;20045;-64
2023/06/02 06:17:04;;;;;;;12.95;3.40;;;;;;;11.51;71.92;102094.50;5029108;28;20052;-63
2023/06/02 06:19:32;;;;;;;12.30;3.80;;;;;;;11.57;71.83;102091.88;5048290;28;20046;-64
2023/06/02 06:21:59;;;;;;;11.63;3.60;;;;;;;11.69;72.15;102090.78;5049982;28;20046;-63
2023/06/02 06:24:29;;;;;;;18.45;4.32;;;;;;;11.77;70.58;102086.00;5054829;28;20050;-65
2023/06/02 06:26:57;;;;;;;12.52;3.85;;;;;;;11.73;70.73;102096.56;5023084;28;20056;-65
2023/06/02 06:29:24;;;;;;;13.75;3.67;;;;;;;11.50;70.60;102097.50;5027455;28;20042;-64
2023/06/02 06:31:53;;;;;;;11.48;3.70;;;;;;;11.51;70.99;102099.97;5039621;28;20060;-64
2023/06/02 06:34:21;;;;;;;14.10;3.67;;;;;;;11.58;71.00;102096.28;5056342;28;20064;-65
2023/06/02 06:36:49;;;;;;;10.55;3.42;;;;;;;11.65;71.29;102099.69;5039836;28;20045;-64
2023/06/02 06:39:17;;;;;;;14.48;3.80;;;;;;;11.71;70.81;102104.16;5037577;28;20065;-64
2023/06/02 06:41:44;;;;;;;12.63;3.33;;;;;;;11.70;70.79;102105.25;5031010;28;20520;-65
2023/06/02 06:44:23;;;;;;;11.52;3.90;;;;;;;11.65;70.91;102096.97;5016574;28;20480;-63
2023/06/02 06:46:51;;;;;;;15.98;3.83;;;;;;;11.71;71.57;102105.00;5015192;28;20049;-64
2023/06/02 06:49:19;;;;;;;15.90;4.10;;;;;;;11.73;71.50;102107.47;5023332;28;20497;-65
2023/06/02 06:51:46;;;;;;;16.45;4.28;;;;;;;11.72;71.13;102106.66;5045425;28;20161;-63
2023/06/02 06:54:15;;;;;;;12.80;4.03;;;;;;;11.70;71.69;102107.97;5016998;28;20045;-62
2023/06/02 06:56:45;;;;;;;12.48;3.47;;;;;;;11.77;70.59;102103.19;5031314;28;20057;-64
2023/06/02 06:59:13;;;;;;;16.80;3.70;;;;;;;11.70;70.46;102097.06;5029571;28;20051;-62
2023/06/02 07:01:43;;;;;;;16.45;4.15;;;;;;;11.66;70.07;102098.59;5046147;28;20429;-63
2023/06/02 07:04:11;;;;;;;15.07;3.72;;;;;;;11.73;70.01;102097.38;5027352;28;20045;-63
2023/06/02 07:06:39;;;;;;;19.10;4.10;;;;;;;11.79;69.71;102098.31;5030433;28;20111;-61
2023/06/02 07:09:08;;;;;;;15.52;4.10;;;;;;;11.77;69.76;102100.47;5030175;28;20474;-63
2023/06/02 07:11:36;;;;;;;13.75;4.30;;;;;;;11.86;69.42;102095.44;5031098;28;20052;-64
2023/06/02 07:14:04;;;;;;;14.00;4.35;;;;;;;11.98;68.09;102096.25;5030876;28;20076;-63
2023/06/02 07:16:46;;;;;;;19.08;4.30;;;;;;;11.81;69.12;102104.38;5030743;28;20051;-62
2023/06/02 07:19:15;;;;;;;11.35;3.75;;;;;;;11.77;69.22;102103.19;5016049;28;20079;-62
2023/06/02 07:21:43;;;;;;;13.32;3.85;;;;;;;11.85;70.60;102097.34;5016443;28;20123;-60
2023/06/02 07:24:11;;;;;;;13.55;3.88;;;;;;;11.85;69.62;102108.25;5024497;28;20088;-61
2023/06/02 07:26:39;;;;;;;15.25;3.97;;;;;;;11.76;68.97;102101.56;5033937;28;20128;-61
2023/06/02 07:29:07;;;;;;;13.23;4.00;;;;;;;11.82;68.88;102106.03;5025492;28;20041;-62
2023/06/02 07:31:34;;;;;;;16.92;3.80;;;;;;;11.93;68.79;102113.38;4996418;28;20046;-65
2023/06/02 07:34:02;;;;;;;15.13;3.72;;;;;;;11.90;68.88;102122.03;5013553;28;20556;-63
2023/06/02 07:36:30;;;;;;;19.77;4.32;;;;;;;11.92;69.18;102111.69;5013042;28;20082;-62
2023/06/02 07:38:58;;;;;;;10.82;3.80;;;;;;;12.01;68.58;102114.88;5012744;28;20121;-64
2023/06/02 07:41:27;;;;;;;16.15;3.75;;;;;;;12.05;69.32;102105.13;5014742;28;20449;-64
2023/06/02 07:43:57;;;;;;;16.15;4.57;;;;;;;12.18;68.52;102112.16;5014092;28;20128;-64
2023/06/02 07:46:24;;;;;;;16.40;4.10;;;;;;;12.26;69.18;102110.91;5030972;28;20613;-63
2023/06/02 07:48:52;;;;;;;14.43;4.00;;;;;;;12.26;69.11;102110.91;5033682;28;20111;-62
2023/06/02 07:51:20;;;;;;;14.65;4.00;;;;;;;12.28;68.59;102097.84;5013389;28;20409;-62
2023/06/02 07:53:48;;;;;;;15.38;3.85;;;;;;;12.15;68.03;102115.41;5030633;28;20490;-63
2023/06/02 07:56:15;;;;;;;16.83;4.40;;;;;;;12.18;68.37;102114.88;5025623;28;20057;-64
2023/06/02 07:58:45;;;;;;;16.05;4.25;;;;;;;12.20;67.12;102112.75;5034363;28;20057;-63
2023/06/02 08:01:14;;;;;;;13.27;3.85;;;;;;;12.20;68.30;102101.81;5044965;28;20033;-63
2023/06/02 08:03:44;;;;;;;18.27;4.18;;;;;;;12.25;68.31;102112.81;5033668;28;20469;-63
2023/06/02 08:06:12;;;;;;;17.83;3.90;;;;;;;12.29;67.98;102108.53;5028169;28;20065;-63
2023/06/02 08:08:40;;;;;;;13.00;3.80;;;;;;;12.27;67.95;102102.47;5012204;28;20120;-62
2023/06/02 08:11:08;;;;;;;14.15;3.97;;;;;;;12.32;68.81;102110.75;5012923;28;20050;-62
2023/06/02 08:13:35;;;;;;;19.67;4.47;;;;;;;12.32;69.53;102108.03;5013357;28;20462;-63
2023/06/02 08:16:03;;;;;;;14.73;4.57;;;;;;;12.35;68.55;102107.53;5027222;28;20460;-63
2023/06/02 08:18:34;;;;;;;18.80;4.82;;;;;;;12.22;68.57;102105.13;5033040;28;20050;-64
2023/06/02 08:21:04;;;;;;;10.02;3.38;;;;;;;12.22;68.64;102105.13;5034024;28;20045;-64
2023/06/02 08:23:32;;;;;;;14.02;4.10;;;;;;;12.32;69.24;102105.28;5032970;28;20065;-63
2023/06/02 08:26:00;;;;;;;15.80;4.10;;;;;;;12.43;67.69;102094.53;5015642;28;20421;-65
2023/06/02 08:28:33;;;;;;;20.67;4.13;;;;;;;12.44;68.50;102107.13;5052147;28;20132;-64
2023/06/02 08:31:01;;;;;;;13.63;3.88;;;;;;;12.30;68.41;102106.63;5035756;28;20049;-63
2023/06/02 08:33:33;;;;;;;17.25;4.30;;;;;;;12.21;68.42;102097.16;5052465;28;20056;-64
2023/06/02 08:36:02;;;;;;;14.55;4.05;;;;;;;12.24;68.96;102100.25;5039955;28;20164;-63
2023/06/02 08:38:30;;;;;;;20.20;4.13;;;;;;;12.33;68.68;102106.13;5036451;28;20049;-64
2023/06/02 08:40:58;;;;;;;17.58;4.18;;;;;;;12.45;68.35;102106.03;5017120;28;20108;-62
2023/06/02 08:43:26;;;;;;;16.08;4.15;;;;;;;12.46;68.69;102102.22;4999467;28;20383;-63
2023/06/02 08:45:56;;;;;;;15.40;4.03;;;;;;;12.57;68.69;102107.59;5031530;28;20540;-64
2023/06/02 08:48:24;;;;;;;18.42;4.45;;;;;;;12.58;67.58;102111.19;5017447;28;20073;-65
2023/06/02 08:50:54;;;;;;;19.30;4.38;;;;;;;12.57;67.77;102098.56;5015347;28;20084;-65
2023/06/02 08:53:24;;;;;;;15.10;3.95;;;;;;;12.67;67.97;102104.19;5016891;28;20053;-64
2023/06/02 08:55:52;;;;;;;14.52;4.30;;;;;;;12.71;68.21;102108.09;5015795;28;20081;-64
2023/06/02 08:58:22;;;;;;;16.77;5.05;;;;;;;12.70;67.91;102103.72;5028481;28;20474;-64
2023/06/02 09:00:50;;;;;;;18.02;4.03;;;;;;;12.74;68.15;102093.06;5036332;28;20053;-64
2023/06/02 09:03:18;;;;;;;14.90;4.03;;;;;;;12.76;67.97;102099.94;5036202;28;20434;-63
2023/06/02 09:05:48;;;;;;;15.73;4.45;;;;;;;12.76;69.27;102099.94;5036203;28;20136;-62
2023/06/02 09:08:16;;;;;;;20.55;4.50;;;;;;;12.81;68.84;102095.66;5026621;28;20069;-65
2023/06/02 09:10:45;;;;;;;17.38;3.97;;;;;;;12.85;69.85;102097.63;5018504;28;20050;-63
2023/06/02 09:13:33;;;;;;;17.80;4.40;;;;;;;13.01;71.18;102093.16;5033221;28;20050;-63
2023/06/02 09:16:08;;;;;;;16.38;4.82;;;;;;;13.04;68.71;102094.59;5018711;28;20045;-63
2023/06/02 09:18:36;;;;;;;14.75;3.60;;;;;;;12.96;69.16;102096.69;5067986;28;20494;-64
2023/06/02 09:21:04;;;;;;;17.55;3.90;;;;;;;12.94;69.23;102100.72;5036427;28;20051;-65
2023/06/02 09:23:50;;;;;;;16.15;4.32;;;;;;;12.83;69.75;102093.50;5036176;28;20061;-64
2023/06/02 09:26:31;;;;;;;11.90;3.67;;;;;;;12.78;71.10;102103.25;5028075;28;20069;-62
2023/06/02 09:29:13;;;;;;;15.95;4.35;;;;;;;12.88;70.73;102094.38;5023729;28;20054;-63
2023/06/02 09:31:51;;;;;;;16.67;4.32;;;;;;;12.92;70.96;102086.50;5024089;28;20052;-63
2023/06/02 09:34:21;;;;;;;14.45;3.85;;;;;;;12.92;71.06;102095.53;5035568;28;20132;-64
2023/06/02 09:36:53;;;;;;;14.75;4.43;;;;;;;12.97;71.07;102092.03;5030634;28;20079;-63
2023/06/02 09:39:42;;;;;;;16.38;4.15;;;;;;;12.98;71.38;102091.78;5033935;28;20441;-66
2023/06/02 09:42:12;;;;;;;13.93;4.18;;;;;;;12.96;70.91;102087.63;5034861;28;20050;-65
2023/06/02 09:44:40;;;;;;;16.02;4.05;;;;;;;12.98;72.51;102085.47;5033435;28;20046;-62
2023/06/02 09:47:22;;;;;;;16.45;4.57;;;;;;;13.09;72.16;102095.50;5016781;28;20132;-63
2023/06/02 09:49:51;;;;;;;15.43;4.13;;;;;;;13.14;71.39;102084.59;5050495;28;20045;-63
2023/06/02 09:52:19;;;;;;;14.75;4.00;;;;;;;13.24;71.89;102086.63;5036230;28;20115;-62
2023/06/02 09:54:48;;;;;;;14.25;4.50;;;;;;;13.32;71.25;102088.13;5033925;28;20060;-62
2023/06/02 09:57:17;;;;;;;13.10;4.10;;;;;;;13.36;71.88;102081.06;5029565;28;20041;-62
2023/06/02 09:59:45;;;;;;;18.90;4.97;;;;;;;13.42;72.90;102090.97;5013466;28;20556;-63
2023/06/02 10:02:13;;;;;;;13.63;4.30;;;;;;;13.43;70.99;102089.91;5026943;28;20511;-62
2023/06/02 10:04:41;;;;;;;14.18;3.80;;;;;;;13.35;70.93;102087.63;5034061;28;20045;-64
2023/06/02 10:07:34;;;;;;;15.25;4.22;;;;;;;13.38;71.59;102089.84;5033819;28;20116;-62
2023/06/02 10:10:03;;;;;;;17.63;5.00;;;;;;;13.36;73.12;102092.03;5015669;28;20046;-61
2023/06/02 10:12:54;;;;;;;18.27;5.10;;;;;;;13.37;72.50;102093.66;5038094;28;20041;-63
2023/06/02 10:15:51;;;;;;;15.23;4.50;;;;;;;13.49;72.13;102082.56;5034837;28;20081;-64
2023/06/02 10:18:28;;;;;;;18.20;4.50;;;;;;;13.45;72.37;102092.41;5029301;28;20041;-62
2023/06/02 10:21:27;;;;;;;15.38;4.70;;;;;;;13.42;73.03;102091.84;5033264;28;20076;-64
2023/06/02 10:24:13;;;;;;;24.20;8.00;;;;;;;13.49;72.55;102091.59;5034930;28;20053;-63
2023/06/02 10:26:50;;;;;;;55.55;21.77;;;;;;;13.48;72.09;102080.94;5044676;28;20056;-64
2023/06/02 10:29:18;;;;;;;20.02;5.40;;;;;;;13.48;72.37;102086.41;4687559;28;10001517;-65
2023/06/02 10:31:46;;;;;;;20.75;6.22;;;;;;;13.46;73.12;102083.09;5034262;28;20079;-65
2023/06/02 10:34:37;;;;;;;16.80;5.65;;;;;;;13.61;73.50;102077.78;5037613;28;20091;-66
2023/06/02 10:37:05;;;;;;;35.88;12.15;;;;;;;13.73;72.35;102083.09;5020663;28;20117;-65
2023/06/02 10:39:39;;;;;;;23.67;6.78;;;;;;;13.76;72.43;102088.09;5059229;28;20049;-66
2023/06/02 10:42:12;;;;;;;24.13;7.82;;;;;;;13.78;72.67;102086.75;5034733;28;20084;-63
2023/06/02 10:44:40;;;;;;;18.02;4.60;;;;;;;13.88;72.98;102083.28;5042405;28;20053;-62
2023/06/02 10:47:20;;;;;;;17.77;5.15;;;;;;;13.99;72.54;102085.00;5031035;28;20066;-62
2023/06/02 10:49:52;;;;;;;37.80;14.32;;;;;;;13.93;72.65;102086.06;5024451;28;20053;-63
2023/06/02 10:52:21;;;;;;;18.60;4.82;;;;;;;13.90;73.42;102085.75;5014990;28;20116;-61
2023/06/02 10:55:07;;;;;;;18.15;6.00;;;;;;;13.85;72.81;102084.63;5027269;28;20057;-62
2023/06/02 10:57:50;;;;;;;;;;;;;;;13.88;73.40;102083.28;5025599;28;20045;-64
2023/06/02 11:00:35;;;;;;;18.83;5.88;;;;;;;13.96;73.62;102087.47;5061373;28;19978;-65
2023/06/02 11:03:20;;;;;;;13.23;4.53;;;;;;;14.01;73.09;102082.00;5030407;28;20060;-63
2023/06/02 11:05:50;;;;;;;24.35;8.35;;;;;;;13.97;72.87;102087.19;5025008;28;20498;-65
2023/06/02 11:08:18;;;;;;;14.57;4.85;;;;;;;13.93;73.18;102088.81;5023400;28;20079;-63
2023/06/02 11:11:00;;;;;;;16.27;4.57;;;;;;;13.98;72.95;102086.09;5031337;28;20705;-62
2023/06/02 11:13:28;;;;;;;15.73;5.43;;;;;;;14.02;73.37;102078.19;5062862;28;20061;-61
2023/06/02 11:15:59;;;;;;;18.95;5.63;;;;;;;14.03;73.62;102086.16;5025490;28;20053;-64
2023/06/02 11:21:17;;;;;;;13.20;4.70;;;;;;;14.10;73.17;102090.59;5020387;28;20509;-65
2023/06/02 11:23:45;;;;;;;15.95;4.55;;;;;;;14.17;73.32;102085.72;5030249;28;20053;-66
2023/06/02 11:26:18;;;;;;;23.65;9.07;;;;;;;14.08;73.13;102088.13;5021309;28;20053;-63
2023/06/02 11:28:46;;;;;;;36.53;13.20;;;;;;;14.11;73.20;102082.09;5020196;28;20633;-63
2023/06/02 11:31:14;;;;;;;30.67;14.07;;;;;;;14.25;73.24;102082.50;5032033;28;20042;-64
2023/06/02 11:33:48;;;;;;;14.27;4.63;;;;;;;14.38;73.54;102082.06;4997401;28;20053;-64